createdAt,value
2018-09-18T00:00:36.702Z,16.17
2018-09-18T00:03:05.304Z,16.20
2018-09-18T00:05:34.518Z,16.21
2018-09-18T00:08:03.200Z,16.19
2018-09-18T00:10:31.822Z,16.24
2018-09-18T00:13:00.572Z,15.97
2018-09-18T00:15:29.032Z,16.26
2018-09-18T00:17:57.689Z,16.26
2018-09-18T00:20:26.350Z,16.27
2018-09-18T00:22:54.958Z,16.28
2018-09-18T00:25:23.452Z,16.29
2018-09-18T00:27:52.078Z,16.31
2018-09-18T00:30:20.639Z,16.33
2018-09-18T00:32:49.172Z,16.34
2018-09-18T00:35:18.011Z,16.35
2018-09-18T00:37:46.695Z,16.37
2018-09-18T00:40:15.494Z,16.39
2018-09-18T00:42:43.946Z,16.40
2018-09-18T00:45:12.604Z,16.43
2018-09-18T00:47:41.093Z,16.43
2018-09-18T00:50:09.754Z,16.45
2018-09-18T00:52:38.309Z,16.46
2018-09-18T00:55:06.978Z,16.47
2018-09-18T00:57:35.625Z,16.48
2018-09-18T01:00:04.242Z,16.49
2018-09-18T01:02:32.847Z,16.50
2018-09-18T01:05:01.516Z,16.51
2018-09-18T01:07:30.130Z,16.52
2018-09-18T01:09:58.702Z,16.52
2018-09-18T01:12:27.336Z,16.54
2018-09-18T01:14:57.075Z,16.50
2018-09-18T01:17:25.658Z,16.50
2018-09-18T01:19:54.302Z,16.58
2018-09-18T01:22:22.828Z,16.58
2018-09-18T01:24:51.817Z,16.58
2018-09-18T01:27:20.645Z,16.59
2018-09-18T01:29:49.210Z,16.59
2018-09-18T01:32:17.693Z,16.61
2018-09-18T01:34:46.266Z,16.61
2018-09-18T01:37:15.039Z,16.57
2018-09-18T01:39:43.625Z,16.63
2018-09-18T01:42:12.394Z,16.65
2018-09-18T01:44:40.857Z,16.65
2018-09-18T01:47:09.454Z,16.67
2018-09-18T01:49:38.094Z,16.69
2018-09-18T01:52:06.745Z,16.69
2018-09-18T01:54:35.241Z,16.69
2018-09-18T01:57:03.916Z,16.65
2018-09-18T01:59:32.618Z,16.70
2018-09-18T02:02:01.134Z,16.73
2018-09-18T02:04:29.888Z,16.72
2018-09-18T02:06:58.418Z,16.75
2018-09-18T02:09:27.046Z,16.73
2018-09-18T02:11:55.652Z,16.76
2018-09-18T02:14:24.109Z,16.78
2018-09-18T02:16:52.673Z,16.48
2018-09-18T02:19:21.122Z,16.79
2018-09-18T02:21:49.777Z,16.80
2018-09-18T02:24:18.403Z,16.78
2018-09-18T02:26:47.053Z,16.80
2018-09-18T02:29:15.694Z,16.80
2018-09-18T02:31:44.186Z,16.80
2018-09-18T02:34:12.894Z,16.80
2018-09-18T02:36:41.437Z,16.80
2018-09-18T02:39:11.841Z,16.81
2018-09-18T02:41:40.543Z,16.80
2018-09-18T02:44:09.229Z,16.80
2018-09-18T02:46:37.766Z,16.81
2018-09-18T02:49:06.577Z,16.79
2018-09-18T02:51:35.107Z,16.81
2018-09-18T02:54:03.613Z,16.81
2018-09-18T02:56:32.158Z,16.27
2018-09-18T02:59:00.636Z,16.81
2018-09-18T03:01:29.417Z,16.82
2018-09-18T03:03:57.898Z,16.80
2018-09-18T03:06:27.066Z,16.81
2018-09-18T03:08:55.677Z,16.81
2018-09-18T03:11:24.257Z,16.80
2018-09-18T03:13:52.702Z,16.79
2018-09-18T03:16:21.271Z,16.76
2018-09-18T03:18:49.952Z,16.73
2018-09-18T03:21:18.426Z,16.76
2018-09-18T03:23:47.277Z,16.28
2018-09-18T03:26:15.746Z,16.76
2018-09-18T03:28:44.341Z,16.77
2018-09-18T03:31:12.810Z,16.78
2018-09-18T03:33:41.316Z,16.79
2018-09-18T03:36:09.818Z,16.80
2018-09-18T03:38:38.282Z,16.79
2018-09-18T03:41:07.402Z,16.77
2018-09-18T03:43:35.915Z,16.78
2018-09-18T03:46:04.774Z,16.79
2018-09-18T03:48:33.455Z,16.79
2018-09-18T03:51:02.176Z,16.77
2018-09-18T03:53:30.646Z,16.77
2018-09-18T03:55:59.114Z,16.77
2018-09-18T03:58:27.745Z,16.77
2018-09-18T04:00:56.209Z,16.77
2018-09-18T04:03:24.951Z,16.73
2018-09-18T04:05:53.488Z,16.76
2018-09-18T04:08:22.306Z,16.75
2018-09-18T04:10:50.879Z,16.75
2018-09-18T04:13:19.510Z,16.75
2018-09-18T04:15:48.134Z,16.73
2018-09-18T04:18:19.393Z,16.73
2018-09-18T04:20:47.974Z,16.73
2018-09-18T04:23:16.487Z,16.75
2018-09-18T04:25:46.073Z,16.66
2018-09-18T04:28:14.571Z,16.78
2018-09-18T04:30:43.703Z,16.47
2018-09-18T04:33:12.206Z,16.78
2018-09-18T04:35:40.807Z,16.77
2018-09-18T04:38:09.375Z,16.77
2018-09-18T04:40:38.088Z,16.76
2018-09-18T04:43:06.666Z,16.77
2018-09-18T04:45:35.340Z,16.77
2018-09-18T04:48:03.814Z,16.78
2018-09-18T04:50:32.282Z,16.80
2018-09-18T04:53:00.954Z,16.81
2018-09-18T04:55:29.474Z,16.82
2018-09-18T04:57:59.779Z,16.83
2018-09-18T05:00:28.347Z,16.82
2018-09-18T05:02:58.622Z,16.81
2018-09-18T05:05:27.385Z,16.80
2018-09-18T05:07:58.158Z,16.77
2018-09-18T05:10:26.751Z,16.79
2018-09-18T05:12:55.925Z,16.47
2018-09-18T05:15:24.618Z,16.76
2018-09-18T05:17:54.998Z,16.74
2018-09-18T05:20:23.486Z,16.73
2018-09-18T05:22:52.070Z,16.64
2018-09-18T05:25:20.544Z,16.69
2018-09-18T05:27:49.358Z,16.66
2018-09-18T05:30:17.963Z,16.68
2018-09-18T05:32:46.826Z,16.71
2018-09-18T05:35:15.396Z,16.73
2018-09-18T05:37:44.023Z,16.79
2018-09-18T05:40:13.734Z,16.81
2018-09-18T05:42:42.194Z,16.81
2018-09-18T05:45:13.147Z,16.82
2018-09-18T05:47:42.898Z,16.82
2018-09-18T05:50:11.498Z,16.82
2018-09-18T05:52:40.042Z,16.81
2018-09-18T05:55:11.053Z,16.81
2018-09-18T05:57:39.759Z,16.80
2018-09-18T06:00:08.482Z,16.81
2018-09-18T06:02:37.738Z,16.84
2018-09-18T06:05:09.231Z,16.89
2018-09-18T06:07:38.086Z,16.90
2018-09-18T06:10:07.150Z,16.91
2018-09-18T06:12:35.819Z,16.94
2018-09-18T06:15:05.210Z,17.00
2018-09-18T06:17:33.825Z,17.02
2018-09-18T06:20:03.778Z,17.02
2018-09-18T06:22:32.292Z,17.04
2018-09-18T06:25:01.404Z,17.08
2018-09-18T06:27:30.058Z,17.10
2018-09-18T06:29:58.952Z,17.14
2018-09-18T06:32:27.438Z,17.17
2018-09-18T06:34:56.682Z,17.20
2018-09-18T06:37:25.299Z,17.24
2018-09-18T06:39:56.072Z,17.28
2018-09-18T06:42:24.793Z,17.33
2018-09-18T06:44:53.407Z,17.36
2018-09-18T06:47:23.370Z,17.40
2018-09-18T06:49:52.508Z,17.45
2018-09-18T06:52:21.315Z,17.48
2018-09-18T06:54:50.667Z,17.52
2018-09-18T06:57:21.981Z,17.54
2018-09-18T06:59:53.282Z,17.54
2018-09-18T07:02:21.892Z,17.62
2018-09-18T07:04:52.601Z,17.66
2018-09-18T07:07:21.827Z,17.71
2018-09-18T07:09:52.982Z,17.76
2018-09-18T07:12:21.462Z,17.80
2018-09-18T07:14:51.658Z,17.55
2018-09-18T07:17:20.282Z,17.90
2018-09-18T07:19:49.148Z,17.88
2018-09-18T07:22:17.626Z,17.99
2018-09-18T07:24:48.944Z,18.04
2018-09-18T07:27:19.412Z,18.09
2018-09-18T07:29:49.858Z,18.11
2018-09-18T07:32:19.561Z,18.20
2018-09-18T07:34:49.677Z,18.25
2018-09-18T07:37:20.231Z,18.33
2018-09-18T07:39:51.175Z,18.37
2018-09-18T07:42:20.965Z,18.43
2018-09-18T07:44:49.454Z,18.49
2018-09-18T07:47:19.446Z,18.54
2018-09-18T07:49:47.914Z,18.59
2018-09-18T07:52:18.015Z,18.67
2018-09-18T07:54:46.538Z,18.69
2018-09-18T07:57:15.801Z,18.76
2018-09-18T07:59:44.857Z,18.80
2018-09-18T08:02:13.739Z,18.85
2018-09-18T08:04:42.823Z,18.91
2018-09-18T08:07:11.531Z,18.97
2018-09-18T08:09:40.242Z,19.01
2018-09-18T08:12:08.774Z,19.04
2018-09-18T08:14:37.624Z,19.08
2018-09-18T08:17:06.615Z,19.08
2018-09-18T08:19:35.472Z,19.10
2018-09-18T08:22:03.989Z,19.14
2018-09-18T08:24:32.730Z,19.20
2018-09-18T08:27:01.251Z,19.24
2018-09-18T08:29:29.808Z,19.30
2018-09-18T08:31:59.068Z,18.80
2018-09-18T08:34:27.674Z,19.38
2018-09-18T08:36:57.085Z,19.45
2018-09-18T08:39:25.637Z,19.48
2018-09-18T08:41:56.310Z,19.52
2018-09-18T08:44:24.922Z,19.58
2018-09-18T08:46:53.822Z,19.64
2018-09-18T08:49:22.827Z,19.71
2018-09-18T08:51:51.985Z,19.80
2018-09-18T08:54:20.593Z,19.84
2018-09-18T08:56:49.663Z,19.91
2018-09-18T08:59:18.199Z,19.96
2018-09-18T09:01:46.699Z,19.98
2018-09-18T09:04:16.185Z,19.80
2018-09-18T09:06:44.935Z,20.07
2018-09-18T09:09:15.010Z,20.09
2018-09-18T09:11:45.033Z,20.13
2018-09-18T09:14:15.064Z,20.18
2018-09-18T09:16:43.666Z,20.25
2018-09-18T09:19:12.467Z,20.28
2018-09-18T09:21:41.052Z,20.30
2018-09-18T09:24:09.844Z,20.28
2018-09-18T09:26:38.399Z,20.31
2018-09-18T09:29:07.159Z,20.10
2018-09-18T09:31:35.721Z,20.42
2018-09-18T09:34:05.264Z,20.47
2018-09-18T09:36:33.974Z,20.52
2018-09-18T09:39:02.723Z,20.54
2018-09-18T09:41:32.856Z,20.61
2018-09-18T09:44:01.752Z,20.65
2018-09-18T09:46:30.450Z,20.69
2018-09-18T09:48:59.083Z,20.75
2018-09-18T09:51:28.595Z,20.63
2018-09-18T09:53:57.170Z,20.88
2018-09-18T09:56:25.811Z,20.96
2018-09-18T09:58:54.299Z,21.00
2018-09-18T10:01:28.567Z,21.09
2018-09-18T10:03:57.567Z,21.19
2018-09-18T10:06:26.740Z,21.28
2018-09-18T10:08:55.624Z,21.30
2018-09-18T10:11:24.182Z,21.35
2018-09-18T10:13:52.850Z,21.40
2018-09-18T10:16:21.756Z,21.49
2018-09-18T10:18:50.240Z,21.54
2018-09-18T10:21:19.266Z,21.38
2018-09-18T10:23:47.810Z,21.68
2018-09-18T10:26:17.686Z,21.77
2018-09-18T10:28:46.086Z,21.83
2018-09-18T10:31:14.771Z,21.91
2018-09-18T10:33:43.421Z,21.91
2018-09-18T10:36:13.643Z,21.98
2018-09-18T10:38:42.234Z,21.99
2018-09-18T10:41:10.867Z,21.98
2018-09-18T10:43:42.353Z,22.01
2018-09-18T10:46:10.934Z,22.01
2018-09-18T10:48:45.952Z,22.05
2018-09-18T10:51:15.247Z,22.15
2018-09-18T10:53:43.813Z,22.17
2018-09-18T10:56:13.768Z,22.14
2018-09-18T10:58:42.249Z,22.16
2018-09-18T11:01:12.792Z,22.13
2018-09-18T11:03:41.404Z,22.24
2018-09-18T11:06:10.942Z,22.34
2018-09-18T11:08:39.490Z,22.40
2018-09-18T11:11:09.571Z,22.47
2018-09-18T11:13:38.090Z,22.44
2018-09-18T11:16:08.042Z,22.48
2018-09-18T11:18:36.448Z,22.53
2018-09-18T11:21:05.213Z,22.53
2018-09-18T11:23:33.786Z,22.55
2018-09-18T11:26:02.478Z,22.59
2018-09-18T11:28:31.030Z,22.60
2018-09-18T11:30:59.672Z,22.60
2018-09-18T11:33:29.146Z,22.67
2018-09-18T11:35:58.766Z,22.69
2018-09-18T11:38:32.309Z,22.71
2018-09-18T11:41:01.046Z,22.72
2018-09-18T11:43:29.594Z,22.70
2018-09-18T11:45:59.510Z,22.80
2018-09-18T11:48:27.977Z,22.83
2018-09-18T11:50:56.868Z,22.92
2018-09-18T11:53:27.715Z,22.97
2018-09-18T11:55:57.776Z,23.04
2018-09-18T11:58:26.436Z,23.09
2018-09-18T12:00:59.655Z,23.04
2018-09-18T12:03:28.764Z,22.95
2018-09-18T12:05:58.095Z,22.99
2018-09-18T12:08:26.660Z,22.92
2018-09-18T12:10:56.738Z,22.96
2018-09-18T12:13:25.302Z,22.97
2018-09-18T12:15:54.834Z,22.70
2018-09-18T12:18:23.378Z,22.98
2018-09-18T12:20:52.522Z,22.99
2018-09-18T12:23:21.054Z,23.01
2018-09-18T12:25:49.932Z,22.98
2018-09-18T12:28:18.403Z,22.95
2018-09-18T12:30:47.130Z,22.96
2018-09-18T12:33:16.518Z,23.01
2018-09-18T12:35:45.084Z,23.01
2018-09-18T12:38:16.120Z,23.10
2018-09-18T12:40:45.250Z,23.12
2018-09-18T12:43:15.376Z,23.15
2018-09-18T12:45:43.998Z,23.18
2018-09-18T12:48:13.434Z,23.20
2018-09-18T12:50:43.112Z,23.22
2018-09-18T12:53:12.325Z,23.24
2018-09-18T12:55:41.047Z,23.23
2018-09-18T12:58:11.761Z,23.25
2018-09-18T13:00:44.267Z,23.28
2018-09-18T13:03:12.758Z,23.27
2018-09-18T13:05:44.075Z,23.28
2018-09-18T13:08:12.569Z,23.28
2018-09-18T13:10:43.027Z,23.34
2018-09-18T13:13:12.427Z,23.41
2018-09-18T13:15:45.213Z,23.46
2018-09-18T13:18:17.101Z,23.48
2018-09-18T13:20:45.704Z,23.51
2018-09-18T13:25:47.550Z,23.52
2018-09-18T13:28:18.302Z,23.50
2018-09-18T13:30:47.042Z,23.50
2018-09-18T13:33:16.930Z,23.52
2018-09-18T13:35:45.550Z,23.55
2018-09-18T13:38:16.388Z,23.58
2018-09-18T13:40:45.186Z,23.54
2018-09-18T13:43:14.955Z,23.60
2018-09-18T13:45:43.542Z,23.64
2018-09-18T13:48:13.421Z,23.64
2018-09-18T13:50:41.927Z,23.68
2018-09-18T13:53:11.211Z,23.44
2018-09-18T13:55:39.841Z,23.60
2018-09-18T13:58:08.738Z,23.63
2018-09-18T14:00:37.274Z,23.63
2018-09-18T14:03:06.044Z,23.65
2018-09-18T14:05:34.532Z,23.64
2018-09-18T14:08:03.112Z,23.68
2018-09-18T14:10:31.697Z,23.67
2018-09-18T14:13:00.157Z,23.64
2018-09-18T14:15:28.876Z,23.62
2018-09-18T14:17:57.532Z,23.62
2018-09-18T14:20:26.411Z,23.10
2018-09-18T14:22:54.957Z,23.66
2018-09-18T14:25:23.764Z,23.69
2018-09-18T14:27:52.479Z,23.69
2018-09-18T14:30:21.014Z,23.68
2018-09-18T14:32:49.550Z,23.66
2018-09-18T14:35:18.006Z,23.62
2018-09-18T14:37:46.867Z,23.63
2018-09-18T14:40:15.523Z,23.53
2018-09-18T14:42:44.384Z,23.54
2018-09-18T14:45:12.905Z,23.39
2018-09-18T14:47:41.601Z,23.45
2018-09-18T14:50:10.102Z,23.46
2018-09-18T14:52:38.755Z,23.46
2018-09-18T14:55:07.326Z,23.36
2018-09-18T14:57:35.890Z,23.45
2018-09-18T15:00:04.593Z,23.43
2018-09-18T15:02:39.686Z,23.40
2018-09-18T15:05:08.183Z,23.37
2018-09-18T15:07:36.905Z,23.37
2018-09-18T15:10:05.470Z,23.38
2018-09-18T15:12:34.058Z,23.35
2018-09-18T15:15:02.631Z,23.35
2018-09-18T15:17:31.228Z,23.31
2018-09-18T15:19:59.989Z,22.76
2018-09-18T15:22:28.510Z,23.27
2018-09-18T15:24:57.235Z,23.27
2018-09-18T15:27:25.733Z,23.24
2018-09-18T15:29:54.339Z,23.19
2018-09-18T15:32:22.951Z,23.17
2018-09-18T15:34:51.632Z,23.10
2018-09-18T15:37:20.177Z,23.02
2018-09-18T15:39:48.786Z,23.03
2018-09-18T15:42:17.370Z,22.97
2018-09-18T15:44:46.023Z,22.96
2018-09-18T15:47:14.822Z,22.92
2018-09-18T15:49:43.306Z,22.86
2018-09-18T15:52:11.936Z,22.81
2018-09-18T15:54:40.359Z,22.77
2018-09-18T15:57:08.865Z,22.78
2018-09-18T15:59:37.398Z,22.76
2018-09-18T16:02:05.931Z,22.71
2018-09-18T16:04:34.618Z,22.64
2018-09-18T16:07:03.112Z,22.58
2018-09-18T16:09:32.059Z,22.54
2018-09-18T16:12:00.537Z,22.47
2018-09-18T16:14:29.168Z,22.38
2018-09-18T16:16:57.707Z,22.31
2018-09-18T16:19:26.173Z,22.26
2018-09-18T16:21:55.425Z,22.17
2018-09-18T16:24:24.349Z,22.14
2018-09-18T16:26:53.364Z,22.02
2018-09-18T16:29:21.877Z,22.02
2018-09-18T16:31:50.882Z,21.96
2018-09-18T16:34:19.358Z,21.91
2018-09-18T16:36:48.007Z,21.45
2018-09-18T16:39:16.509Z,21.83
2018-09-18T16:41:45.233Z,21.85
2018-09-18T16:44:14.519Z,21.85
2018-09-18T16:46:43.186Z,21.85
2018-09-18T16:49:11.598Z,21.85
2018-09-18T16:51:40.783Z,21.87
2018-09-18T16:54:09.556Z,21.90
2018-09-18T16:56:38.172Z,21.92
2018-09-18T16:59:06.809Z,21.96
2018-09-18T17:01:35.449Z,21.95
2018-09-18T17:04:04.274Z,21.69
2018-09-18T17:06:32.801Z,21.96
2018-09-18T17:09:01.937Z,21.69
2018-09-18T17:11:30.438Z,21.85
2018-09-18T17:13:59.278Z,21.91
2018-09-18T17:16:27.878Z,21.84
2018-09-18T17:18:56.575Z,21.79
2018-09-18T17:21:25.783Z,21.74
2018-09-18T17:23:58.321Z,21.71
2018-09-18T17:26:27.095Z,21.72
2018-09-18T17:28:56.887Z,21.69
2018-09-18T17:31:25.394Z,21.67
2018-09-18T17:33:54.170Z,21.62
2018-09-18T17:36:23.416Z,21.61
2018-09-18T17:38:52.068Z,21.46
2018-09-18T17:41:22.117Z,21.45
2018-09-18T17:43:50.656Z,21.37
2018-09-18T17:46:19.328Z,21.12
2018-09-18T17:48:47.817Z,21.21
2018-09-18T17:51:17.657Z,21.17
2018-09-18T17:53:47.265Z,21.11
2018-09-18T17:56:16.173Z,21.03
2018-09-18T17:58:44.760Z,20.95
2018-09-18T18:01:13.934Z,20.88
2018-09-18T18:03:42.528Z,20.84
2018-09-18T18:06:11.129Z,20.80
2018-09-18T18:08:42.414Z,20.76
2018-09-18T18:11:11.418Z,20.39
2018-09-18T18:13:39.910Z,20.63
2018-09-18T18:16:08.694Z,20.57
2018-09-18T18:18:37.277Z,20.50
2018-09-18T18:21:05.846Z,20.45
2018-09-18T18:23:34.372Z,20.39
2018-09-18T18:26:03.492Z,20.32
2018-09-18T18:28:32.910Z,20.12
2018-09-18T18:31:01.473Z,20.11
2018-09-18T18:33:31.162Z,20.02
2018-09-18T18:35:59.893Z,19.96
2018-09-18T18:38:28.910Z,19.75
2018-09-18T18:40:57.500Z,19.78
2018-09-18T18:43:26.225Z,19.69
2018-09-18T18:45:54.797Z,19.59
2018-09-18T18:48:23.514Z,19.53
2018-09-18T18:50:51.949Z,19.48
2018-09-18T18:53:20.485Z,19.41
2018-09-18T18:55:49.098Z,19.33
2018-09-18T18:58:17.713Z,19.26
2018-09-18T19:00:46.726Z,19.22
2018-09-18T19:03:15.412Z,19.15
2018-09-18T19:05:44.319Z,19.11
2018-09-18T19:08:12.799Z,19.06
2018-09-18T19:10:41.484Z,19.03
2018-09-18T19:13:10.050Z,19.00
2018-09-18T19:15:38.548Z,18.94
2018-09-18T19:18:07.292Z,18.81
2018-09-18T19:20:35.755Z,18.86
2018-09-18T19:23:04.561Z,18.84
2018-09-18T19:25:33.251Z,18.77
2018-09-18T19:28:02.547Z,18.70
2018-09-18T19:30:31.009Z,18.64
2018-09-18T19:32:59.712Z,18.58
2018-09-18T19:35:28.177Z,18.54
2018-09-18T19:37:56.786Z,18.52
2018-09-18T19:40:25.659Z,18.49
2018-09-18T19:42:54.162Z,18.50
2018-09-18T19:45:22.829Z,18.53
2018-09-18T19:47:51.402Z,18.55
2018-09-18T19:50:20.038Z,18.59
2018-09-18T19:52:49.097Z,18.62
2018-09-18T19:55:18.285Z,18.66
2018-09-18T19:57:47.030Z,18.66
2018-09-18T20:00:15.815Z,18.69
2018-09-18T20:02:44.321Z,18.72
2018-09-18T20:05:13.203Z,18.73
2018-09-18T20:07:41.738Z,18.71
2018-09-18T20:10:10.350Z,18.66
2018-09-18T20:12:39.224Z,18.40
2018-09-18T20:15:07.790Z,18.76
2018-09-18T20:17:36.579Z,18.76
2018-09-18T20:20:05.289Z,18.78
2018-09-18T20:22:33.874Z,18.78
2018-09-18T20:25:02.459Z,18.77
2018-09-18T20:27:30.946Z,18.78
2018-09-18T20:29:59.720Z,18.77
2018-09-18T20:32:28.270Z,18.76
2018-09-18T20:34:56.977Z,18.75
2018-09-18T20:37:25.460Z,18.75
2018-09-18T20:39:54.138Z,18.72
2018-09-18T20:42:22.644Z,18.72
2018-09-18T20:44:51.215Z,18.71
2018-09-18T20:47:20.018Z,18.43
2018-09-18T20:49:48.548Z,18.70
2018-09-18T20:52:17.309Z,18.70
2018-09-18T20:54:45.922Z,18.68
2018-09-18T20:57:14.760Z,18.68
2018-09-18T20:59:43.394Z,18.65
2018-09-18T21:02:13.544Z,18.63
2018-09-18T21:04:42.082Z,18.61
2018-09-18T21:07:10.651Z,18.60
2018-09-18T21:09:39.215Z,18.59
2018-09-18T21:12:07.786Z,18.60
2018-09-18T21:14:36.552Z,18.30
2018-09-18T21:17:05.211Z,18.55
2018-09-18T21:19:33.781Z,18.50
2018-09-18T21:22:02.376Z,18.47
2018-09-18T21:24:30.978Z,18.46
2018-09-18T21:26:59.568Z,18.45
2018-09-18T21:29:28.075Z,18.45
2018-09-18T21:31:56.738Z,18.46
2018-09-18T21:34:25.206Z,18.43
2018-09-18T21:36:53.993Z,18.42
2018-09-18T21:39:22.537Z,18.42
2018-09-18T21:41:51.166Z,18.42
2018-09-18T21:44:19.766Z,18.40
2018-09-18T21:46:48.277Z,18.38
2018-09-18T21:49:16.843Z,18.37
2018-09-18T21:51:45.374Z,18.35
2018-09-18T21:54:14.174Z,18.35
2018-09-18T21:56:42.641Z,18.37
2018-09-18T21:59:11.918Z,18.36
2018-09-18T22:01:40.435Z,18.35
2018-09-18T22:04:08.957Z,18.35
2018-09-18T22:06:37.597Z,18.36
2018-09-18T22:09:06.881Z,18.35
2018-09-18T22:11:35.537Z,18.34
2018-09-18T22:14:04.054Z,18.33
2018-09-18T22:16:32.755Z,18.33
2018-09-18T22:19:01.848Z,18.30
2018-09-18T22:21:30.697Z,18.32
2018-09-18T22:23:59.277Z,18.29
2018-09-18T22:26:27.959Z,18.26
2018-09-18T22:28:56.510Z,18.25
2018-09-18T22:31:25.179Z,18.25
2018-09-18T22:33:54.357Z,18.14
2018-09-18T22:36:22.870Z,18.22
2018-09-18T22:38:51.659Z,17.81
2018-09-18T22:41:20.246Z,18.21
2018-09-18T22:43:48.900Z,18.19
2018-09-18T22:46:17.375Z,18.17
2018-09-18T22:48:45.954Z,18.17
2018-09-18T22:51:14.673Z,18.16
2018-09-18T22:53:43.518Z,18.16
2018-09-18T22:56:12.120Z,18.07
2018-09-18T22:58:40.598Z,18.11
2018-09-18T23:01:09.482Z,18.14
2018-09-18T23:03:37.974Z,18.13
2018-09-18T23:06:06.813Z,18.12
2018-09-18T23:08:35.318Z,18.12
2018-09-18T23:11:03.884Z,18.10
2018-09-18T23:13:32.421Z,18.10
2018-09-18T23:16:00.936Z,18.09
2018-09-18T23:18:29.679Z,17.78
2018-09-18T23:20:58.486Z,18.10
2018-09-18T23:23:27.294Z,18.06
2018-09-18T23:25:55.908Z,18.09
2018-09-18T23:28:24.726Z,18.10
2018-09-18T23:30:53.438Z,18.05
2018-09-18T23:33:22.163Z,18.02
2018-09-18T23:35:50.676Z,18.04
2018-09-18T23:38:19.390Z,18.06
2018-09-18T23:40:48.038Z,18.06
2018-09-18T23:43:16.518Z,18.02
2018-09-18T23:45:45.224Z,18.02
2018-09-18T23:48:13.696Z,18.00
2018-09-18T23:50:42.485Z,18.00
2018-09-18T23:53:11.054Z,18.00
2018-09-18T23:55:39.682Z,18.00
2018-09-18T23:58:08.168Z,17.97
